Ash, NC

3:14 PM EDT on September 01, 2014 (GMT -0400)
Henry Cannon Smith Farm | Change Station
CLOSE
Current Station
Personal Weather Station
Location: Nakina, NC
Elevation: 0 ft
Nearby Weather Stations

Elev 0 ft 34.14 °N, 78.62 °W | Updated 14 minutes ago

Clear
Clear
94.3 °F
Feels Like 110 °F
N
0.0
Wind Variable Wind from SW
Gusts 5.0 mph

Today
High -- | Low -- °F
--% Chance of Precip.
Yesterday
High -- | Low -- °F
Precip. -- in
6:47 AM 7:39 PM
Waxing Crescent, 43% visible
Pressure 30.07 in
Visibility 10.0 miles
Clouds Clear
Heat Index 110 °F
Dew Point 78 °F
Humidity 59%
Rainfall 0.00 in
Snow Depth Not available.
UV 9 out of 12
Pollen 8.70 out of 12
Air Quality Not available.
Flu Activity Not available.
METAR KCPC 011835Z AUTO 00000KT 10SM CLR 32/23 A3007 RMK AO2 T03230225

More Conditions Fewer Conditions

Pressure 30.07 in
Visibility 10.0 miles
Clouds Clear
Heat Index 110 °F
Dew Point 78 °F
Humidity 59%
Rainfall 0.00 in
Snow Depth Not available.
UV 9 out of 12
Pollen 8.70 out of 12
Air Quality Not available.
Flu Activity Not available.
METAR KCPC 011835Z AUTO 00000KT 10SM CLR 32/23 A3007 RMK AO2 T03230225

More Conditions Fewer Conditions

10-Day Weather Forecast

Almanac

Astronomy

Sep. 01, 2014 Rise Set
Actual Time 6:47 AM EDT 7:39 PM EDT
Civil Twilight 6:22 AM EDT 8:05 PM EDT
Nautical Twilight 5:51 AM EDT 8:35 PM EDT
Astronomical Twilight 5:20 AM EDT 9:06 PM EDT
Moon 1:13 PM EDT 11:58 PM EDT
Length of Visible Light 13h 43m
Length of Day
12h 52m
Tomorrow will be 2m 2s shorter.
Waxing Crescent, 43% of the Moon is Illuminated
Today
Waxing Crescent
Sep 2
First Quarter
Sep 8
Full
Sep 15
Last Quarter
Sep 24
New

Today's Extremes

State Highs State Lows

Community

WunderPhotos

Upload Photos

1,749,373 photos uploaded!

WunderBlogs® & News

Nearby

Snow Depth

Station Depth Elevation
No new snow has been reported.

Earthquake Activity

City Distance Mag. Time & Date
No recent earthquake activity has been reported nearby.
Minimum magnitude displayed is 2.5.

Coastal Water Temperatures

Place Temperature
Johnny Mercer Pier, Wrightsville Beach, NC 84.0 °F
Springmaid Pier, SC 82.9 °F

Nearby Weather Stations